Aviation Digital Data Service (ADDS)

Output produced by METARs form (0142 UTC 29 April 2016)
found at http://www.aviationweather.gov/adds/metars/
 
KLNS 290138Z 08003KT 3SM BR BKN006 OVC012 06/06 A3004 RMK AO2 RAE21 CIG 002V009 P0000 T00610061
KLNS 290125Z 08005KT 3SM BR SCT005 OVC011 06/06 A3005 RMK AO2 RAE21 CIG 008V013 P0000 T00610056
KLNS 290111Z 06004KT 2 1/2SM -RA BR SCT005 OVC011 06/06 A3005 RMK AO2 P0000 T00610056
KLNS 290053Z 10006KT 4SM -RA BR FEW006 BKN013 OVC020 06/06 A3005 RMK AO2 RAB44 SLP176 P0000 T00610056
KLNS 290012Z 10005KT 6SM BR FEW006 BKN016 OVC032 06/06 A3004 RMK AO2 T00610056
KLNS 290001Z 10006KT 5SM BR FEW005 SCT016 OVC032 06/06 A3003 RMK AO2 T00610056
KLNS 282353Z 10007KT 5SM BR FEW005 BKN016 OVC032 06/06 A3003 RMK AO2 SLP171 60014 T00610056 10094 20061 53005
KLNS 282344Z 10008KT 4SM BR BKN005 BKN016 OVC033 06/06 A3003 RMK AO2 T00610056
KLNS 282323Z 09007KT 2 1/2SM BR BKN005 OVC027 06/06 A3003 RMK AO2 T00610056
KLNS 282307Z 10007KT 2 1/2SM BR FEW005 BKN027 OVC032 06/06 A3003 RMK AO2 T00610056
KLNS 282253Z 09008KT 4SM BR FEW005 SCT012 OVC031 06/06 A3002 RMK AO2 RAE49 SLP166 P0001 T00610056
KLNS 282223Z 10009KT 3SM -RA BR FEW006 BKN027 OVC036 06/06 A3003 RMK AO2 P0001 T00610056
KLNS 282211Z 09010KT 2SM -RA BR SCT006 SCT028 OVC036 07/06 A3002 RMK AO2 P0001 T00670061
KLNS 282203Z 08009KT 3SM -RA BR FEW006 SCT030 OVC036 07/06 A3002 RMK AO2 P0000 T00670056
KLNS 282153Z 09008KT 2SM -RA BR FEW006 BKN026 OVC034 07/06 A3003 RMK AO2 SLP170 P0003 T00670056
KLNS 282146Z 07008KT 2 1/2SM -RA BR SCT006 BKN012 OVC034 07/06 A3003 RMK AO2 P0003 T00670061
KLNS 282141Z 09007KT 3SM -RA BR SCT009 SCT012 OVC034 07/06 A3003 RMK AO2 P0002 T00670061
KLNS 282135Z 09007KT 2 1/2SM -RA BR SCT007 BKN011 OVC034 07/06 A3003 RMK AO2 P0002 T00670056
KLNS 282123Z 10006KT 4SM -RA BR BKN007 OVC011 07/06 A3002 RMK AO2 CIG 004V009 P0002 T00720061
KLNS 282116Z 09008KT 2 1/2SM -RA BR OVC007 07/07 A3002 RMK AO2 P0002 T00720067
KLNS 282059Z 08009KT 1 3/4SM -RA BR BKN005 BKN026 OVC035 07/07 A3002 RMK AO2 P0001 T00720067
KLNS 282053Z 08007KT 2SM -RA BR SCT005 BKN022 OVC033 08/07 A3002 RMK AO2 SLP167 P0003 60010 T00780067 58001
KLNS 282047Z 08006KT 1 3/4SM -RA BR FEW005 SCT022 OVC033 08/07 A3002 RMK AO2 P0002
KLNS 282043Z 09006KT 2SM -RA BR SCT022 OVC033 08/07 A3002 RMK AO2 P0002 T00780067
KLNS 282008Z 06006KT 3SM -RA BR BKN017 OVC026 07/07 A3002 RMK AO2 P0001 T00720067
KLNS 282002Z 05007KT 1 3/4SM -RA BR BKN017 OVC026 07/06 A3002 RMK AO2 P0001 T00720061
KLNS 281953Z 05009KT 2SM RA BR BKN015 BKN021 OVC026 07/06 A3001 RMK AO2 SLP165 P0005 T00720061
KLNS 281934Z 04008KT 5SM -RA BR BKN015 BKN020 OVC026 07/06 A3002 RMK AO2 P0004 T00720061
KLNS 281911Z 03010KT 2SM RA BR BKN019 OVC025 07/06 A3002 RMK AO2 P0002 T00720061
KLNS 281900Z 02008KT 1 3/4SM RA BR BKN022 OVC034 08/06 A3003 RMK AO2 P0001 T00780056
KLNS 281853Z 02007KT 4SM -RA BKN022 OVC034 08/05 A3003 RMK AO2 SLP171 P0002 T00830050
KLNS 281753Z 07006KT 10SM -RA OVC044 09/05 A3002 RMK AO2 SLP167 P0002 60004 T00940050 10106 20094 58000
KLNS 281653Z 09007KT 9SM -RA BKN049 OVC080 10/04 A3002 RMK AO2 RAB1556 SLP168 P0002 T01000039
KLNS 281553Z 12007KT 10SM OVC050 11/01 A3004 RMK AO2 SLP171 T01060006
KLNS 281453Z 07008KT 10SM OVC047 11/M01 A3002 RMK AO2 SLP167 T01061006 51001
KLNS 281353Z 07009KT 10SM OVC049 10/01 A3002 RMK AO2 SLP167 T01000006
KLNS 281253Z 09007KT 10SM OVC049 10/04 A3003 RMK AO2 SLP168 T01000044
KLNS 281153Z 05003KT 7SM FEW049 09/06 A3002 RMK AO2 SLP166 T00940061 10111 20072 53014
KLNS 281053Z 05007KT 5SM BR CLR 09/07 A2998 RMK AO2 SLP153 T00890067
KLNS 281048Z 05007KT 4SM BR CLR 08/07 A2998 RMK AO2
KLNS 281012Z 06003KT 2 1/2SM BR CLR 08/07 A2998 RMK AO2 T00780072
KLNS 280953Z AUTO 00000KT 4SM BR CLR 08/08 A2998 RMK AO2 SLP152 T00830078
KLNS 280853Z AUTO 03004KT 4SM BR CLR 08/07 A2994 RMK AO2 SLP141 T00830072 53006
KLNS 280753Z AUTO 00000KT 5SM BR CLR 09/08 A2993 RMK AO2 SLP137 T00940083
KLNS 280653Z AUTO 33003KT 5SM BR CLR 10/08 A2993 RMK AO2 SLP137 T01000083
KLNS 280622Z AUTO 36005KT 5SM BR SCT014 10/08 A2992 RMK AO2 T01000078
KLNS 280553Z AUTO 34003KT 4SM BR OVC012 11/09 A2993 RMK AO2 SLP135 T01110089 10117 20100 58002
KLNS 280453Z AUTO 34004KT 4SM BR OVC012 11/09 A2994 RMK AO2 SLP137 T01110089 401280094
KLNS 280353Z AUTO 30003KT 5SM BR OVC012 11/09 A2993 RMK AO2 SLP136 T01110094
KLNS 280253Z 27004KT 7SM OVC013 11/09 A2993 RMK AO2 SLP137 T01110089 53011
KLNS 280153Z 27004KT 7SM OVC014 11/09 A2992 RMK AO2 SLP132 T01110089
KLNS 280128Z 24005KT 8SM OVC014 11/08 A2991 RMK AO2 T01110083
KLNS 280053Z 24003KT 8SM BKN015 11/08 A2991 RMK AO2 SLP130 T01060083
KLNS 280046Z 24005KT 7SM BKN015 11/08 A2991 RMK AO2 T01060083
KLNS 280016Z 24005KT 7SM SCT022 10/08 A2991 RMK AO2 T01000078
KLNS 272353Z 23004KT 6SM HZ OVC022 11/08 A2990 RMK AO2 SLP126 T01110078 10117 20106 58004
KLNS 272253Z 00000KT 6SM HZ OVC018 12/08 A2991 RMK AO2 SLP130 T01170083
KLNS 272153Z 00000KT 5SM HZ OVC017 12/08 A2991 RMK AO2 SLP129 T01170078
KLNS 272053Z 00000KT 5SM HZ OVC017 11/08 A2991 RMK AO2 SLP130 T01110078 56001
KLNS 271953Z 09003KT 5SM HZ OVC016 11/08 A2992 RMK AO2 SLP131 T01110078
KLNS 271853Z 12004KT 6SM HZ OVC015 11/08 A2991 RMK AO2 SLP128 T01060078
KLNS 271753Z 00000KT 6SM HZ OVC015 11/08 A2992 RMK AO2 SLP131 T01060078 10111 20094 56008
KLNS 271729Z 08004KT 6SM HZ OVC014 11/08 A2992 RMK AO2 T01060078
KLNS 271717Z 09004KT 5SM HZ OVC016 11/08 A2991 RMK AO2 T01060078
KLNS 271653Z 09004KT 5SM HZ OVC012 11/08 A2992 RMK AO2 SLP132 T01060078
KLNS 271553Z 14005KT 6SM HZ OVC012 11/08 A2992 RMK AO2 SLP133 T01060078
KLNS 271516Z 13007KT 6SM BR OVC014 10/08 A2994 RMK AO2 T01000078
KLNS 271506Z 11007KT 6SM BR SCT008 OVC016 10/08 A2994 RMK AO2 T01000078
KLNS 271453Z 08004KT 4SM BR BKN010 OVC014 09/08 A2994 RMK AO2 CIG 006V012 SLP139 T00940078 53008
KLNS 271445Z 10007KT 3SM BR OVC010 09/08 A2994 RMK AO2 CIG 006V012 T00940083
KLNS 271353Z 13006KT 5SM BR BKN009 OVC013 10/08 A2993 RMK AO2 CIG 007V012 SLP136 T01000083